Time;durP1;ratioP1;P1;durP2;ratioP2;P2;SDS_P1;SDS_P2;PMS_P1;PMS_P2;Temp;Humidity;BMP_temperature;BMP_pressure;BME280_temperature;BME280_humidity;BME280_pressure;Samples;Min_cycle;Max_cycle;Signal;HPM_P1;HPM_P2
2023/07/06 00:01:19;;;;;;;10.90;5.10;;;;;;;;;;5007383;28;20443;-69
2023/07/06 00:03:45;;;;;;;10.63;5.30;;;;;;;;;;5001429;28;20045;-69
2023/07/06 00:06:11;;;;;;;11.07;5.37;;;;;;;;;;4996952;28;20049;-69
2023/07/06 00:08:39;;;;;;;13.80;4.97;;;;;;;;;;5004689;28;20450;-69
2023/07/06 00:11:05;;;;;;;15.03;5.73;;;;;;;;;;5001011;28;20501;-69
2023/07/06 00:13:30;;;;;;;10.93;5.50;;;;;;;;;;4996745;28;20030;-69
2023/07/06 00:15:56;;;;;;;11.50;5.47;;;;;;;;;;5004138;28;20026;-69
2023/07/06 00:18:22;;;;;;;11.43;5.80;;;;;;;;;;4994118;28;20088;-69
2023/07/06 00:20:49;;;;;;;15.00;6.90;;;;;;;;;;4995172;28;20379;-69
2023/07/06 00:23:14;;;;;;;13.20;6.90;;;;;;;;;;4992994;28;20015;-69
2023/07/06 00:25:41;;;;;;;16.53;7.20;;;;;;;;;;5003275;28;20084;-69
2023/07/06 00:28:08;;;;;;;18.30;8.03;;;;;;;;;;5003305;28;20022;-69
2023/07/06 00:33:14;;;;;;;14.47;7.70;;;;;;;;;;4999909;28;20064;-69
2023/07/06 00:35:40;;;;;;;17.37;7.50;;;;;;;;;;5013837;28;20381;-69
2023/07/06 00:38:11;;;;;;;16.77;7.37;;;;;;;;;;5003821;28;20037;-69
2023/07/06 00:40:38;;;;;;;14.63;6.32;;;;;;;;;;5002496;28;20046;-70
2023/07/06 00:43:06;;;;;;;21.70;7.17;;;;;;;;;;5013389;28;20030;-69
2023/07/06 00:45:32;;;;;;;12.80;6.37;;;;;;;;;;5012121;28;20478;-69
2023/07/06 00:47:59;;;;;;;16.10;6.30;;;;;;;;;;5013066;28;20029;-69
2023/07/06 00:50:28;;;;;;;14.37;6.67;;;;;;;;;;5002747;28;20498;-69
2023/07/06 00:53:07;;;;;;;15.93;6.13;;;;;;;;;;4999929;28;20026;-69
2023/07/06 00:55:36;;;;;;;11.00;5.50;;;;;;;;;;5001870;28;20394;-69
2023/07/06 00:58:09;;;;;;;18.67;6.67;;;;;;;;;;4999044;28;20045;-69
2023/07/06 01:03:44;;;;;;;13.00;5.77;;;;;;;;;;5045729;22;20400;-66
2023/07/06 01:06:19;;;;;;;10.53;5.37;;;;;;;;;;5034941;28;20029;-65
2023/07/06 01:08:46;;;;;;;11.23;5.83;;;;;;;;;;5045780;28;20021;-65
2023/07/06 01:11:14;;;;;;;8.63;4.93;;;;;;;;;;5046067;28;20033;-65
2023/07/06 01:13:43;;;;;;;11.40;5.80;;;;;;;;;;5044510;28;20086;-65
2023/07/06 01:16:18;;;;;;;13.43;6.67;;;;;;;;;;5045862;28;20040;-65
2023/07/06 01:18:56;;;;;;;9.67;5.57;;;;;;;;;;5043692;28;20039;-65
2023/07/06 01:21:31;;;;;;;13.70;5.57;;;;;;;;;;5050078;28;20029;-66
2023/07/06 01:24:15;;;;;;;9.17;5.27;;;;;;;;;;5045589;28;20032;-66
2023/07/06 01:26:58;;;;;;;9.63;5.67;;;;;;;;;;5041316;28;20440;-68
2023/07/06 01:29:27;;;;;;;13.60;5.80;;;;;;;;;;5046497;28;20017;-66
2023/07/06 01:31:55;;;;;;;10.50;5.50;;;;;;;;;;5045588;28;20228;-65
2023/07/06 01:34:26;;;;;;;11.67;5.43;;;;;;;;;;5048341;28;20033;-66
2023/07/06 01:37:13;;;;;;;11.70;6.28;;;;;;;;;;5041360;28;20040;-66
2023/07/06 01:39:38;;;;;;;13.20;6.20;;;;;;;;;;5052316;28;20681;-66
2023/07/06 01:42:06;;;;;;;13.17;6.57;;;;;;;;;;5044681;28;20021;-66
2023/07/06 01:44:31;;;;;;;10.70;6.13;;;;;;;;;;5039504;28;20530;-66
2023/07/06 01:46:57;;;;;;;11.83;6.07;;;;;;;;;;5047485;28;20107;-66
2023/07/06 01:49:22;;;;;;;12.77;5.87;;;;;;;;;;5045001;28;20025;-66
2023/07/06 01:51:48;;;;;;;9.83;6.60;;;;;;;;;;5040461;28;20025;-66
2023/07/06 01:54:16;;;;;;;10.30;6.10;;;;;;;;;;5048947;28;20017;-65
2023/07/06 01:56:47;;;;;;;12.07;6.50;;;;;;;;;;5045664;28;20519;-65
2023/07/06 01:59:17;;;;;;;14.60;7.13;;;;;;;;;;5040216;28;20018;-66
2023/07/06 02:01:44;;;;;;;10.23;6.23;;;;;;;;;;5040179;28;20028;-66
2023/07/06 02:04:10;;;;;;;11.13;6.70;;;;;;;;;;5029748;28;20162;-66
2023/07/06 02:06:36;;;;;;;11.17;6.37;;;;;;;;;;5029904;28;20105;-66
2023/07/06 02:09:03;;;;;;;11.37;6.63;;;;;;;;;;5030286;28;20088;-65
2023/07/06 02:11:28;;;;;;;13.80;6.90;;;;;;;;;;5030688;28;20033;-66
2023/07/06 02:13:54;;;;;;;10.87;6.83;;;;;;;;;;5034229;28;20040;-66
2023/07/06 02:16:19;;;;;;;12.80;7.17;;;;;;;;;;5025433;28;20473;-66
2023/07/06 02:18:45;;;;;;;12.07;7.00;;;;;;;;;;5043386;28;20385;-62
2023/07/06 02:21:10;;;;;;;11.50;6.87;;;;;;;;;;5024471;28;20405;-62
2023/07/06 02:23:36;;;;;;;13.20;7.30;;;;;;;;;;5030723;28;20013;-62
2023/07/06 02:26:01;;;;;;;12.63;7.20;;;;;;;;;;5032963;28;20517;-62
2023/07/06 02:28:27;;;;;;;14.43;7.30;;;;;;;;;;5024451;28;20044;-62
2023/07/06 02:30:52;;;;;;;13.30;7.20;;;;;;;;;;5025153;28;20394;-62
2023/07/06 02:33:18;;;;;;;12.33;7.17;;;;;;;;;;5029254;28;20033;-61
2023/07/06 02:35:46;;;;;;;11.60;7.07;;;;;;;;;;5030917;28;20017;-62
2023/07/06 02:38:13;;;;;;;12.50;6.77;;;;;;;;;;5030554;28;20029;-61
2023/07/06 02:40:39;;;;;;;15.60;7.27;;;;;;;;;;5028829;28;20112;-65
2023/07/06 02:43:04;;;;;;;13.30;7.63;;;;;;;;;;5030475;28;20472;-66
2023/07/06 02:45:29;;;;;;;12.70;7.30;;;;;;;;;;5037508;28;20030;-66
2023/07/06 02:47:55;;;;;;;13.97;7.50;;;;;;;;;;5032142;28;20029;-65
2023/07/06 02:50:20;;;;;;;16.23;8.00;;;;;;;;;;5028438;28;20034;-65
2023/07/06 02:52:45;;;;;;;13.67;8.10;;;;;;;;;;5025543;28;20489;-65
2023/07/06 02:55:11;;;;;;;14.60;7.63;;;;;;;;;;5017338;28;20475;-66
2023/07/06 02:57:39;;;;;;;14.30;7.87;;;;;;;;;;5022410;28;20029;-65
2023/07/06 03:00:09;;;;;;;15.67;8.90;;;;;;;;;;5014343;28;20030;-66
2023/07/06 03:02:35;;;;;;;15.00;9.23;;;;;;;;;;5015457;28;20054;-66
2023/07/06 03:05:00;;;;;;;14.20;9.03;;;;;;;;;;5018359;28;20531;-66
2023/07/06 03:07:25;;;;;;;18.77;9.63;;;;;;;;;;5027813;28;20030;-66
2023/07/06 03:09:50;;;;;;;17.70;10.30;;;;;;;;;;5029885;28;20491;-66
2023/07/06 03:12:16;;;;;;;17.87;10.73;;;;;;;;;;5027510;28;20389;-66
2023/07/06 03:14:42;;;;;;;23.10;10.57;;;;;;;;;;5029531;28;20389;-66
2023/07/06 03:17:07;;;;;;;18.53;10.23;;;;;;;;;;5025766;28;20029;-66
2023/07/06 03:19:33;;;;;;;18.07;11.17;;;;;;;;;;5029654;28;20025;-66
2023/07/06 03:21:58;;;;;;;18.77;10.30;;;;;;;;;;5021060;28;20033;-66
2023/07/06 03:24:24;;;;;;;19.90;11.00;;;;;;;;;;5026264;28;20018;-66
2023/07/06 03:26:49;;;;;;;21.77;11.53;;;;;;;;;;5025264;28;20109;-66
2023/07/06 03:29:14;;;;;;;22.93;12.53;;;;;;;;;;5018316;28;20017;-66
2023/07/06 03:31:40;;;;;;;22.17;11.80;;;;;;;;;;5019166;28;20021;-66
2023/07/06 03:34:06;;;;;;;21.73;12.63;;;;;;;;;;5015430;28;20029;-66
2023/07/06 03:36:33;;;;;;;23.50;12.73;;;;;;;;;;5013317;28;20044;-66
2023/07/06 03:38:58;;;;;;;25.23;14.10;;;;;;;;;;5019696;28;20086;-66
2023/07/06 03:41:24;;;;;;;26.97;14.43;;;;;;;;;;5030074;28;20061;-66
2023/07/06 03:43:51;;;;;;;24.63;13.87;;;;;;;;;;5023098;28;20056;-66
2023/07/06 03:46:16;;;;;;;30.03;14.50;;;;;;;;;;5024234;28;20342;-65
2023/07/06 03:48:44;;;;;;;29.73;14.03;;;;;;;;;;5012733;28;20076;-66
2023/07/06 03:51:09;;;;;;;23.67;14.00;;;;;;;;;;5024854;28;20120;-66
2023/07/06 03:53:37;;;;;;;24.33;13.53;;;;;;;;;;5018824;28;20100;-66
2023/07/06 03:56:03;;;;;;;24.23;13.37;;;;;;;;;;5014250;28;20037;-65
2023/07/06 03:58:29;;;;;;;22.67;12.50;;;;;;;;;;5029522;28;20037;-65
2023/07/06 04:00:56;;;;;;;21.97;12.37;;;;;;;;;;5021772;28;20033;-65
2023/07/06 04:03:21;;;;;;;21.20;11.10;;;;;;;;;;5020204;28;20427;-65
2023/07/06 04:05:47;;;;;;;18.77;11.03;;;;;;;;;;5034716;28;20032;-65
2023/07/06 04:08:15;;;;;;;18.27;9.37;;;;;;;;;;5024726;28;20033;-65
2023/07/06 04:10:41;;;;;;;17.90;9.90;;;;;;;;;;5019469;28;20505;-64
2023/07/06 04:13:06;;;;;;;13.57;8.90;;;;;;;;;;5031724;28;20092;-64
2023/07/06 04:15:32;;;;;;;13.70;8.80;;;;;;;;;;5033845;28;20025;-65
2023/07/06 04:17:58;;;;;;;14.43;8.83;;;;;;;;;;5035071;28;20424;-65
2023/07/06 04:20:25;;;;;;;17.20;9.20;;;;;;;;;;5016940;28;20025;-65
2023/07/06 04:22:54;;;;;;;13.73;8.73;;;;;;;;;;5021461;28;20259;-66
2023/07/06 04:25:21;;;;;;;14.77;8.53;;;;;;;;;;5036177;28;20393;-65
2023/07/06 04:27:49;;;;;;;13.63;8.80;;;;;;;;;;5034970;28;20029;-66
2023/07/06 04:30:15;;;;;;;16.83;9.30;;;;;;;;;;5024848;28;20088;-66
2023/07/06 04:32:41;;;;;;;16.87;9.07;;;;;;;;;;5032322;28;20108;-65
2023/07/06 04:35:09;;;;;;;14.80;9.50;;;;;;;;;;5016319;28;20510;-65
2023/07/06 04:37:34;;;;;;;16.98;8.82;;;;;;;;;;5032803;28;20087;-65
2023/07/06 04:40:01;;;;;;;14.03;8.20;;;;;;;;;;5029697;28;20037;-66
2023/07/06 04:42:27;;;;;;;15.40;8.63;;;;;;;;;;5027728;28;20494;-65
2023/07/06 04:44:53;;;;;;;14.57;8.57;;;;;;;;;;5028356;28;20175;-65
2023/07/06 04:47:19;;;;;;;12.32;7.95;;;;;;;;;;5018765;28;20053;-65
2023/07/06 04:49:46;;;;;;;14.45;8.05;;;;;;;;;;5028954;28;20021;-65
2023/07/06 04:52:12;;;;;;;12.70;7.53;;;;;;;;;;5025465;28;20036;-64
2023/07/06 04:54:37;;;;;;;14.63;7.60;;;;;;;;;;5030623;28;20466;-65
2023/07/06 04:57:04;;;;;;;11.60;7.43;;;;;;;;;;5023078;28;20396;-65
2023/07/06 04:59:29;;;;;;;12.43;7.40;;;;;;;;;;5019807;28;20117;-64
2023/07/06 05:01:55;;;;;;;18.17;7.60;;;;;;;;;;5023663;28;20042;-65
2023/07/06 05:04:21;;;;;;;13.63;7.30;;;;;;;;;;5034752;28;20481;-65
2023/07/06 05:06:47;;;;;;;13.57;7.93;;;;;;;;;;5032703;28;20121;-65
2023/07/06 05:09:12;;;;;;;13.50;7.03;;;;;;;;;;5025054;28;20041;-65
2023/07/06 05:11:38;;;;;;;16.13;7.22;;;;;;;;;;5034541;28;20075;-65
2023/07/06 05:14:04;;;;;;;10.63;7.00;;;;;;;;;;5028008;28;20437;-64
2023/07/06 05:16:29;;;;;;;11.98;7.18;;;;;;;;;;5019794;28;20025;-64
2023/07/06 05:18:55;;;;;;;15.68;7.38;;;;;;;;;;5019815;28;20095;-65
2023/07/06 05:21:20;;;;;;;12.50;7.28;;;;;;;;;;5023862;28;20022;-64
2023/07/06 05:23:46;;;;;;;11.95;6.82;;;;;;;;;;5023924;28;20040;-65
2023/07/06 05:26:11;;;;;;;11.00;6.72;;;;;;;;;;5022040;28;20015;-64
2023/07/06 05:28:36;;;;;;;13.73;6.70;;;;;;;;;;5023065;28;20039;-64
2023/07/06 05:31:02;;;;;;;13.63;6.85;;;;;;;;;;5027910;28;20026;-65
2023/07/06 05:33:28;;;;;;;12.25;7.30;;;;;;;;;;5026675;28;20446;-64
2023/07/06 05:35:53;;;;;;;11.57;6.85;;;;;;;;;;5015250;28;20029;-64
2023/07/06 05:38:18;;;;;;;15.63;7.80;;;;;;;;;;5015567;28;20028;-65
2023/07/06 05:40:43;;;;;;;12.75;7.28;;;;;;;;;;5015369;28;20535;-64
2023/07/06 05:43:09;;;;;;;13.18;6.95;;;;;;;;;;5015462;28;20028;-64
2023/07/06 05:45:34;;;;;;;14.57;7.70;;;;;;;;;;5015120;28;20029;-65
2023/07/06 05:48:00;;;;;;;11.95;7.20;;;;;;;;;;5015353;28;20029;-64
2023/07/06 05:50:25;;;;;;;14.95;7.13;;;;;;;;;;5015631;28;20022;-65
2023/07/06 05:52:51;;;;;;;14.10;7.63;;;;;;;;;;5015292;28;20058;-64
2023/07/06 05:55:16;;;;;;;15.00;7.18;;;;;;;;;;5025229;28;20108;-63
2023/07/06 05:57:43;;;;;;;16.20;7.78;;;;;;;;;;5035155;28;20057;-63
2023/07/06 06:00:11;;;;;;;14.25;6.88;;;;;;;;;;5025727;28;20034;-63
2023/07/06 06:02:39;;;;;;;13.20;6.47;;;;;;;;;;5016404;28;20034;-63
2023/07/06 06:05:05;;;;;;;12.13;5.85;;;;;;;;;;5015218;28;20025;-63
2023/07/06 06:07:33;;;;;;;11.82;5.63;;;;;;;;;;5015258;28;20465;-63
2023/07/06 06:09:59;;;;;;;12.82;6.35;;;;;;;;;;5014953;28;20022;-63
2023/07/06 06:12:27;;;;;;;10.90;6.20;;;;;;;;;;5018728;28;20048;-63
2023/07/06 06:14:53;;;;;;;12.88;6.43;;;;;;;;;;5029732;28;20381;-64
2023/07/06 06:17:19;;;;;;;12.02;6.10;;;;;;;;;;5014869;28;20017;-63
2023/07/06 06:19:45;;;;;;;12.27;6.32;;;;;;;;;;5014998;28;20028;-63
2023/07/06 06:22:11;;;;;;;12.65;6.25;;;;;;;;;;5014664;28;20022;-63
2023/07/06 06:24:36;;;;;;;11.02;5.82;;;;;;;;;;5034359;28;20028;-63
2023/07/06 06:27:01;;;;;;;13.00;5.50;;;;;;;;;;5034730;28;20024;-63
2023/07/06 06:29:27;;;;;;;12.43;6.63;;;;;;;;;;5034584;28;20045;-64
2023/07/06 06:31:52;;;;;;;11.77;5.30;;;;;;;;;;5015218;28;20060;-65
2023/07/06 06:34:18;;;;;;;9.77;5.07;;;;;;;;;;5014692;28;20022;-64
2023/07/06 06:36:43;;;;;;;10.15;5.28;;;;;;;;;;5014849;28;20026;-63
2023/07/06 06:39:09;;;;;;;11.73;5.53;;;;;;;;;;5014649;28;20105;-63
2023/07/06 06:41:39;;;;;;;12.90;5.20;;;;;;;;;;5030773;28;20080;-63
2023/07/06 06:44:04;;;;;;;10.52;5.15;;;;;;;;;;5033454;28;20030;-63
2023/07/06 06:46:30;;;;;;;10.30;5.05;;;;;;;;;;5020622;28;20033;-63
2023/07/06 06:48:55;;;;;;;11.80;5.28;;;;;;;;;;5025172;28;20100;-64
2023/07/06 06:51:20;;;;;;;14.38;5.20;;;;;;;;;;5033312;28;20029;-63
2023/07/06 06:53:46;;;;;;;16.88;5.13;;;;;;;;;;5033944;28;20480;-63
2023/07/06 06:56:12;;;;;;;9.68;4.57;;;;;;;;;;5034149;28;20033;-63
2023/07/06 06:58:38;;;;;;;11.32;4.60;;;;;;;;;;5034030;28;20367;-63
2023/07/06 07:01:03;;;;;;;14.50;5.40;;;;;;;;;;5022542;28;20022;-72
2023/07/06 07:03:29;;;;;;;11.55;4.78;;;;;;;;;;5015696;28;20409;-63
2023/07/06 07:06:02;;;;;;;17.98;6.03;;;;;;;;;;5015711;28;20413;-64
2023/07/06 07:08:28;;;;;;;11.38;4.47;;;;;;;;;;5014036;28;20042;-63
2023/07/06 07:10:57;;;;;;;10.73;4.80;;;;;;;;;;5026571;28;20143;-64
2023/07/06 07:13:23;;;;;;;12.52;4.93;;;;;;;;;;5033840;28;20021;-63
2023/07/06 07:15:48;;;;;;;9.77;4.50;;;;;;;;;;5026015;28;20024;-63
2023/07/06 07:18:14;;;;;;;10.60;5.10;;;;;;;;;;5017381;28;20057;-63
2023/07/06 07:20:39;;;;;;;11.93;4.88;;;;;;;;;;5031419;28;20036;-63
2023/07/06 07:23:05;;;;;;;9.52;4.70;;;;;;;;;;5027891;28;20022;-63
2023/07/06 07:25:30;;;;;;;8.35;3.85;;;;;;;;;;5013904;28;20021;-63
2023/07/06 07:27:55;;;;;;;11.80;4.55;;;;;;;;;;5014259;28;20025;-63
2023/07/06 07:30:21;;;;;;;11.32;4.57;;;;;;;;;;5018856;28;20013;-64
2023/07/06 07:32:47;;;;;;;12.48;4.40;;;;;;;;;;5031652;28;20025;-64
2023/07/06 07:35:12;;;;;;;10.52;4.40;;;;;;;;;;5033044;28;20018;-63
2023/07/06 07:37:38;;;;;;;8.95;4.40;;;;;;;;;;5032976;28;20381;-65
2023/07/06 07:40:05;;;;;;;13.45;4.20;;;;;;;;;;5033421;28;20028;-64
2023/07/06 07:42:30;;;;;;;10.23;4.28;;;;;;;;;;5033342;28;20097;-63
2023/07/06 07:44:57;;;;;;;12.48;4.88;;;;;;;;;;5029298;28;20104;-64
2023/07/06 07:47:24;;;;;;;10.90;4.20;;;;;;;;;;5013431;28;20026;-63
2023/07/06 07:49:49;;;;;;;12.52;4.00;;;;;;;;;;5012122;28;20022;-63
2023/07/06 07:52:14;;;;;;;17.85;4.63;;;;;;;;;;5021809;28;20383;-63
2023/07/06 07:54:40;;;;;;;10.55;3.80;;;;;;;;;;5032522;28;20029;-63
2023/07/06 07:57:06;;;;;;;10.93;3.80;;;;;;;;;;5017537;28;20037;-63
2023/07/06 07:59:33;;;;;;;12.07;3.67;;;;;;;;;;5013692;28;20025;-63
2023/07/06 08:01:58;;;;;;;10.60;3.67;;;;;;;;;;5013011;28;20029;-63
2023/07/06 08:04:24;;;;;;;9.18;3.38;;;;;;;;;;5032009;28;20389;-63
2023/07/06 08:06:50;;;;;;;9.43;3.90;;;;;;;;;;5032887;28;20013;-63
2023/07/06 08:09:15;;;;;;;11.48;3.97;;;;;;;;;;5033093;28;20029;-64
2023/07/06 08:11:46;;;;;;;10.63;3.72;;;;;;;;;;5032293;28;20496;-63
2023/07/06 08:14:11;;;;;;;14.52;4.45;;;;;;;;;;5032863;28;20394;-64
2023/07/06 08:16:40;;;;;;;15.73;4.50;;;;;;;;;;5019873;28;20038;-64
2023/07/06 08:19:05;;;;;;;13.43;4.10;;;;;;;;;;5012916;28;20033;-63
2023/07/06 08:21:30;;;;;;;12.15;5.18;;;;;;;;;;5012374;28;20033;-64
2023/07/06 08:23:57;;;;;;;10.23;4.25;;;;;;;;;;5013184;28;20018;-63
2023/07/06 08:26:22;;;;;;;12.88;5.00;;;;;;;;;;5013298;28;20373;-63
2023/07/06 08:28:47;;;;;;;12.52;4.10;;;;;;;;;;5013029;28;20020;-63
2023/07/06 08:31:17;;;;;;;12.40;3.78;;;;;;;;;;5021860;28;20025;-63
2023/07/06 08:33:43;;;;;;;10.65;3.50;;;;;;;;;;5032986;28;20032;-63
2023/07/06 08:36:09;;;;;;;10.40;3.92;;;;;;;;;;5030497;28;20481;-63
2023/07/06 08:38:37;;;;;;;9.98;3.20;;;;;;;;;;5032626;28;20034;-63
2023/07/06 08:41:03;;;;;;;10.68;3.45;;;;;;;;;;5032038;28;20469;-63
2023/07/06 08:43:30;;;;;;;10.70;3.45;;;;;;;;;;5032582;28;20358;-63
2023/07/06 08:46:00;;;;;;;23.52;4.13;;;;;;;;;;5027400;28;20033;-63
2023/07/06 08:48:26;;;;;;;10.15;3.15;;;;;;;;;;5032257;28;20028;-63
2023/07/06 08:50:57;;;;;;;10.93;3.25;;;;;;;;;;5035469;28;20060;-63
2023/07/06 08:53:27;;;;;;;11.23;3.60;;;;;;;;;;5036250;28;20022;-63
2023/07/06 08:55:53;;;;;;;10.10;3.17;;;;;;;;;;5036167;28;20017;-63
2023/07/06 08:58:23;;;;;;;11.23;3.10;;;;;;;;;;5036442;28;20417;-63
2023/07/06 09:00:48;;;;;;;12.23;3.07;;;;;;;;;;5032740;28;20179;-63
2023/07/06 09:03:14;;;;;;;9.38;2.58;;;;;;;;;;5034099;28;20120;-64
2023/07/06 09:05:43;;;;;;;6.63;2.53;;;;;;;;;;5036278;28;20107;-63
2023/07/06 09:08:13;;;;;;;8.75;2.90;;;;;;;;;;5035504;28;20020;-64
2023/07/06 09:10:38;;;;;;;8.85;2.47;;;;;;;;;;5034376;28;20018;-64
2023/07/06 09:13:15;;;;;;;9.35;2.80;;;;;;;;;;5035829;28;20027;-64
2023/07/06 09:15:40;;;;;;;10.85;2.65;;;;;;;;;;5033825;28;20025;-64
2023/07/06 09:18:06;;;;;;;6.35;2.25;;;;;;;;;;5031847;28;20505;-64
2023/07/06 09:20:32;;;;;;;7.65;2.35;;;;;;;;;;5035961;28;20492;-64
2023/07/06 09:22:58;;;;;;;6.25;2.33;;;;;;;;;;5035671;28;20465;-64
2023/07/06 09:25:27;;;;;;;7.63;2.30;;;;;;;;;;5033778;28;20071;-64
2023/07/06 09:27:55;;;;;;;8.82;2.60;;;;;;;;;;5034465;28;20020;-64
2023/07/06 09:30:30;;;;;;;6.85;2.50;;;;;;;;;;5027246;28;20026;-64
2023/07/06 09:33:17;;;;;;;6.97;2.33;;;;;;;;;;5027615;28;20524;-64
2023/07/06 09:35:42;;;;;;;5.90;2.40;;;;;;;;;;4974502;28;20489;-64
2023/07/06 09:38:14;;;;;;;8.23;2.80;;;;;;;;;;4974524;28;20059;-65
2023/07/06 09:40:39;;;;;;;;;;;;;;;;;;4974770;28;20054;-65
2023/07/06 09:43:14;;;;;;;10.85;2.95;;;;;;;;;;4973044;28;20341;-66
2023/07/06 09:45:39;;;;;;;6.97;2.08;;;;;;;;;;4974270;28;20098;-66
2023/07/06 09:48:07;;;;;;;11.45;2.67;;;;;;;;;;4961822;28;20110;-66
2023/07/06 09:50:38;;;;;;;8.75;3.00;;;;;;;;;;4954992;29;20542;-66
2023/07/06 09:53:05;;;;;;;;;;;;;;;;;;4970772;28;20039;-66
2023/07/06 09:55:31;;;;;;;8.63;2.83;;;;;;;;;;4974146;28;19906;-66
2023/07/06 09:57:57;;;;;;;8.75;2.60;;;;;;;;;;4974143;28;20030;-66
2023/07/06 10:00:23;;;;;;;8.60;3.05;;;;;;;;;;4973633;28;20031;-66
2023/07/06 10:02:56;;;;;;;8.57;2.65;;;;;;;;;;4970500;28;20125;-66
2023/07/06 10:05:27;;;;;;;7.30;2.92;;;;;;;;;;4966221;28;20038;-66
2023/07/06 10:08:00;;;;;;;9.27;3.00;;;;;;;;;;4973757;28;20054;-66
2023/07/06 10:10:48;;;;;;;7.50;3.10;;;;;;;;;;4973934;28;20078;-67
2023/07/06 10:13:17;;;;;;;8.68;2.78;;;;;;;;;;5002200;28;20104;-67
2023/07/06 10:16:08;;;;;;;9.88;3.15;;;;;;;;;;5015778;28;20029;-66
2023/07/06 10:18:39;;;;;;;9.73;3.05;;;;;;;;;;4972576;28;20069;-65
2023/07/06 10:21:04;;;;;;;9.38;3.30;;;;;;;;;;4973702;28;20039;-65
2023/07/06 10:23:32;;;;;;;7.53;3.05;;;;;;;;;;4972439;28;20027;-65
2023/07/06 10:26:17;;;;;;;8.20;2.65;;;;;;;;;;4973529;28;20077;-66
2023/07/06 10:28:47;;;;;;;10.25;2.85;;;;;;;;;;4973669;28;20475;-65
2023/07/06 10:31:16;;;;;;;7.90;2.87;;;;;;;;;;4971972;28;20054;-64
2023/07/06 10:34:03;;;;;;;10.75;2.50;;;;;;;;;;4973351;28;20027;-65
2023/07/06 10:36:32;;;;;;;7.97;2.50;;;;;;;;;;4972659;28;20058;-65
2023/07/06 10:38:57;;;;;;;7.88;2.78;;;;;;;;;;4973336;28;20030;-65
2023/07/06 10:41:30;;;;;;;11.05;3.83;;;;;;;;;;4972497;28;20093;-66
2023/07/06 10:43:56;;;;;;;9.55;2.88;;;;;;;;;;4972172;28;20070;-65
2023/07/06 10:46:35;;;;;;;8.55;3.08;;;;;;;;;;4971775;28;20042;-66
2023/07/06 10:49:17;;;;;;;6.93;2.25;;;;;;;;;;4972371;28;20038;-66
2023/07/06 10:51:50;;;;;;;8.80;2.53;;;;;;;;;;4973173;28;20019;-67
2023/07/06 10:54:17;;;;;;;8.35;2.50;;;;;;;;;;4976186;28;20027;-66
2023/07/06 10:56:46;;;;;;;8.82;2.85;;;;;;;;;;5015234;28;20030;-66
2023/07/06 10:59:20;;;;;;;7.45;2.70;;;;;;;;;;5029803;28;20511;-66
2023/07/06 11:01:47;;;;;;;9.48;2.50;;;;;;;;;;5015705;28;20034;-66
2023/07/06 11:04:31;;;;;;;11.05;3.17;;;;;;;;;;5013854;28;20046;-64
2023/07/06 11:06:56;;;;;;;6.38;2.30;;;;;;;;;;5022885;28;20466;-64
2023/07/06 11:09:22;;;;;;;8.43;2.80;;;;;;;;;;5031153;28;20017;-64
2023/07/06 11:11:51;;;;;;;6.32;2.50;;;;;;;;;;5033597;28;20448;-63
2023/07/06 11:14:34;;;;;;;6.65;2.20;;;;;;;;;;5033904;28;20021;-63
2023/07/06 11:17:22;;;;;;;6.30;2.05;;;;;;;;;;5022879;28;20041;-63
2023/07/06 11:19:53;;;;;;;7.53;2.28;;;;;;;;;;5032006;28;20033;-64
2023/07/06 11:22:20;;;;;;;5.75;1.88;;;;;;;;;;5032484;28;20021;-64
2023/07/06 11:24:48;;;;;;;5.72;2.22;;;;;;;;;;5029262;28;20021;-64
2023/07/06 11:27:16;;;;;;;6.03;1.63;;;;;;;;;;5033262;28;20025;-64
2023/07/06 11:29:42;;;;;;;7.10;1.90;;;;;;;;;;5033472;28;20020;-65
2023/07/06 11:32:13;;;;;;;5.18;1.90;;;;;;;;;;5031803;28;20029;-64
2023/07/06 11:34:56;;;;;;;5.40;1.65;;;;;;;;;;5028079;28;20025;-64
2023/07/06 11:37:22;;;;;;;4.90;1.73;;;;;;;;;;5013918;28;20021;-65
2023/07/06 11:40:00;;;;;;;5.78;1.70;;;;;;;;;;5030097;28;20551;-64
2023/07/06 11:42:54;;;;;;;8.02;1.80;;;;;;;;;;5032954;28;20083;-65
2023/07/06 11:45:19;;;;;;;5.90;1.88;;;;;;;;;;4954530;28;20058;-65
2023/07/06 11:47:44;;;;;;;6.50;2.13;;;;;;;;;;4953145;29;20042;-64
2023/07/06 11:50:12;;;;;;;8.82;1.98;;;;;;;;;;4952918;29;20033;-64
2023/07/06 11:52:40;;;;;;;8.98;2.33;;;;;;;;;;4952859;29;20038;-64
2023/07/06 11:55:34;;;;;;;4.07;1.58;;;;;;;;;;4960048;28;20522;-64
2023/07/06 11:58:18;;;;;;;4.28;1.75;;;;;;;;;;4972257;28;20026;-64
2023/07/06 12:00:54;;;;;;;6.60;1.73;;;;;;;;;;4970669;28;20420;-64
2023/07/06 12:03:20;;;;;;;7.35;1.90;;;;;;;;;;4971905;28;20038;-64
2023/07/06 12:05:47;;;;;;;6.50;1.80;;;;;;;;;;4971342;28;20038;-64
2023/07/06 12:08:19;;;;;;;5.43;1.60;;;;;;;;;;4972208;28;20031;-64
2023/07/06 12:10:48;;;;;;;7.00;1.75;;;;;;;;;;4972352;28;20034;-65
2023/07/06 12:13:26;;;;;;;4.32;1.63;;;;;;;;;;4972077;28;20142;-65
2023/07/06 12:16:07;;;;;;;4.88;1.83;;;;;;;;;;4960257;28;20031;-65
2023/07/06 12:18:36;;;;;;;5.75;1.80;;;;;;;;;;4952990;29;20431;-65
2023/07/06 12:21:02;;;;;;;6.50;1.65;;;;;;;;;;4965791;28;20029;-65
2023/07/06 12:23:27;;;;;;;5.20;1.90;;;;;;;;;;5016431;28;20049;-65
2023/07/06 12:25:54;;;;;;;6.03;1.77;;;;;;;;;;5029884;28;20291;-65
2023/07/06 12:28:19;;;;;;;8.18;2.38;;;;;;;;;;5036966;28;20045;-65
2023/07/06 12:30:44;;;;;;;8.43;1.90;;;;;;;;;;5026412;28;20066;-65
2023/07/06 12:33:13;;;;;;;7.25;1.73;;;;;;;;;;5017853;28;20030;-65
2023/07/06 12:35:40;;;;;;;5.25;1.50;;;;;;;;;;5036427;28;20024;-65
2023/07/06 12:38:09;;;;;;;3.33;1.38;;;;;;;;;;5034631;28;20033;-66
2023/07/06 12:40:35;;;;;;;6.13;1.70;;;;;;;;;;5017161;28;20030;-65
2023/07/06 12:43:00;;;;;;;6.55;1.63;;;;;;;;;;5023721;28;20362;-66
2023/07/06 12:45:29;;;;;;;7.47;1.70;;;;;;;;;;5030560;28;20026;-66
2023/07/06 12:47:57;;;;;;;6.07;1.35;;;;;;;;;;5016997;28;20529;-66
2023/07/06 12:50:29;;;;;;;6.35;1.50;;;;;;;;;;5016662;28;20046;-66
2023/07/06 12:53:22;;;;;;;4.45;1.23;;;;;;;;;;5016773;28;20037;-66
2023/07/06 12:55:48;;;;;;;4.72;1.55;;;;;;;;;;5022629;28;20029;-66
2023/07/06 12:58:32;;;;;;;5.53;1.40;;;;;;;;;;5036182;28;20436;-66
2023/07/06 13:01:10;;;;;;;5.03;1.35;;;;;;;;;;5034726;28;20035;-66
2023/07/06 13:03:52;;;;;;;5.28;1.50;;;;;;;;;;5018302;28;20129;-66
2023/07/06 13:06:19;;;;;;;6.47;1.35;;;;;;;;;;5031916;28;20017;-67
2023/07/06 13:08:45;;;;;;;5.03;1.50;;;;;;;;;;5035947;28;20482;-66
2023/07/06 13:11:11;;;;;;;4.63;1.58;;;;;;;;;;5036013;28;20098;-66
2023/07/06 13:13:37;;;;;;;3.67;1.42;;;;;;;;;;5035199;28;20025;-67
2023/07/06 13:16:20;;;;;;;6.78;1.80;;;;;;;;;;5029810;28;20541;-67
2023/07/06 13:18:46;;;;;;;4.40;1.30;;;;;;;;;;5027336;28;20425;-67
2023/07/06 13:21:17;;;;;;;3.95;1.40;;;;;;;;;;5030481;28;20076;-66
2023/07/06 13:23:42;;;;;;;4.95;1.30;;;;;;;;;;5015966;28;20022;-66
2023/07/06 13:26:07;;;;;;;4.43;1.48;;;;;;;;;;5015875;28;20041;-66
2023/07/06 13:28:35;;;;;;;4.68;1.60;;;;;;;;;;5016185;28;20053;-66
2023/07/06 13:31:02;;;;;;;3.35;1.30;;;;;;;;;;5015997;28;20013;-66
2023/07/06 13:33:28;;;;;;;6.07;1.70;;;;;;;;;;5014848;28;20543;-66
2023/07/06 13:35:53;;;;;;;4.07;1.50;;;;;;;;;;5028124;28;20022;-66
2023/07/06 13:38:18;;;;;;;4.90;1.67;;;;;;;;;;5034942;28;20037;-66
2023/07/06 13:40:48;;;;;;;7.32;2.00;;;;;;;;;;5033661;28;20017;-67
2023/07/06 13:43:14;;;;;;;5.43;1.65;;;;;;;;;;5028710;28;20029;-67
2023/07/06 13:45:41;;;;;;;6.93;1.40;;;;;;;;;;5035195;28;20109;-67
2023/07/06 13:48:06;;;;;;;4.03;1.40;;;;;;;;;;5016130;28;20095;-67
2023/07/06 13:50:32;;;;;;;4.32;1.30;;;;;;;;;;5015306;28;20054;-67
2023/07/06 13:52:58;;;;;;;10.38;1.80;;;;;;;;;;5033572;28;20033;-68
2023/07/06 13:55:42;;;;;;;5.32;1.50;;;;;;;;;;5035286;28;20422;-68
2023/07/06 13:58:10;;;;;;;5.38;1.30;;;;;;;;;;5035197;28;20430;-68
2023/07/06 14:00:35;;;;;;;4.53;1.30;;;;;;;;;;5034986;28;20076;-68
2023/07/06 14:03:00;;;;;;;4.72;1.35;;;;;;;;;;5025524;28;20046;-67
2023/07/06 14:05:26;;;;;;;5.35;1.60;;;;;;;;;;5034018;28;20025;-68
2023/07/06 14:07:51;;;;;;;4.88;1.60;;;;;;;;;;5018891;28;20457;-67
2023/07/06 14:10:20;;;;;;;5.53;1.50;;;;;;;;;;5015298;28;20072;-67
2023/07/06 14:12:49;;;;;;;4.43;1.70;;;;;;;;;;5015296;28;20428;-67
2023/07/06 14:15:15;;;;;;;4.43;1.63;;;;;;;;;;5015054;28;20100;-67
2023/07/06 14:17:42;;;;;;;4.95;1.70;;;;;;;;;;5016185;28;20613;-67
2023/07/06 14:20:08;;;;;;;4.30;1.50;;;;;;;;;;5015087;28;20428;-67
2023/07/06 14:22:33;;;;;;;5.35;1.88;;;;;;;;;;5014694;28;20018;-67
2023/07/06 14:24:58;;;;;;;5.05;1.65;;;;;;;;;;5014789;28;20029;-67
2023/07/06 14:27:25;;;;;;;8.23;1.80;;;;;;;;;;5028631;28;20033;-67
2023/07/06 14:29:50;;;;;;;9.20;2.00;;;;;;;;;;5034346;28;20026;-67
2023/07/06 14:32:16;;;;;;;4.13;1.80;;;;;;;;;;5021210;28;20041;-67
2023/07/06 14:34:42;;;;;;;6.38;1.80;;;;;;;;;;5030988;28;20057;-67
2023/07/06 14:37:07;;;;;;;5.35;1.92;;;;;;;;;;5024102;28;20054;-68
2023/07/06 14:39:32;;;;;;;5.40;1.90;;;;;;;;;;5031997;28;20033;-68
2023/07/06 14:41:58;;;;;;;5.03;1.77;;;;;;;;;;5034115;28;20021;-68
2023/07/06 14:44:23;;;;;;;4.28;1.52;;;;;;;;;;5032584;28;20026;-69
2023/07/06 14:46:48;;;;;;;4.65;1.83;;;;;;;;;;5027130;28;20014;-69